Time;durP1;ratioP1;P1;durP2;ratioP2;P2;SDS_P1;SDS_P2;PMS_P1;PMS_P2;Temp;Humidity;BMP_temperature;BMP_pressure;BME280_temperature;BME280_humidity;BME280_pressure;Samples;Min_cycle;Max_cycle;Signal;HPM_P1;HPM_P2
2021/05/20 00:01:53;;;;;;;;;;;10.00;99.90;;;;;;10507817;28;20055;-72
2021/05/20 00:06:55;;;;;;;;;;;10.00;99.90;;;;;;10504842;28;19931;-72
2021/05/20 00:11:57;;;;;;;;;;;10.00;99.90;;;;;;10503832;28;20450;-73
2021/05/20 00:16:59;;;;;;;;;;;10.00;99.90;;;;;;10521142;28;19928;-73
2021/05/20 00:22:01;;;;;;;;;;;10.00;99.90;;;;;;10496895;28;20327;-71
2021/05/20 00:27:03;;;;;;;;;;;10.00;99.90;;;;;;10525690;28;20006;-73
2021/05/20 00:32:05;;;;;;;;;;;9.90;99.90;;;;;;10500977;28;20011;-72
2021/05/20 00:37:06;;;;;;;;;;;9.80;99.90;;;;;;10519546;28;20304;-72
2021/05/20 00:42:09;;;;;;;;;;;9.80;99.90;;;;;;10515699;28;20373;-73
2021/05/20 00:47:10;;;;;;;;;;;9.80;99.90;;;;;;10553418;27;20385;-73
2021/05/20 00:52:12;;;;;;;;;;;9.80;99.90;;;;;;10511728;28;19931;-73
2021/05/20 00:57:15;;;;;;;;;;;9.70;99.90;;;;;;10530510;28;19975;-72
2021/05/20 01:02:17;;;;;;;;;;;9.70;99.90;;;;;;10499171;28;20342;-72
2021/05/20 01:07:19;;;;;;;;;;;9.70;99.90;;;;;;10479004;28;20032;-72
2021/05/20 01:12:21;;;;;;;;;;;9.70;99.90;;;;;;10494138;28;20021;-72
2021/05/20 01:17:25;;;;;;;;;;;9.80;99.90;;;;;;10523558;27;19925;-72
2021/05/20 01:22:27;;;;;;;;;;;9.90;99.90;;;;;;10500916;28;20015;-72
2021/05/20 01:27:29;;;;;;;;;;;9.90;99.90;;;;;;10491883;28;19928;-73
2021/05/20 01:32:31;;;;;;;;;;;9.80;99.90;;;;;;10490885;28;19935;-72
2021/05/20 01:37:33;;;;;;;;;;;9.80;99.90;;;;;;10501098;28;19960;-73
2021/05/20 01:42:35;;;;;;;;;;;9.90;99.90;;;;;;10501826;28;19977;-73
2021/05/20 01:47:37;;;;;;;;;;;9.90;99.90;;;;;;10493607;28;20019;-72
2021/05/20 01:52:39;;;;;;;;;;;9.90;99.90;;;;;;10497315;28;20433;-72
2021/05/20 01:57:41;;;;;;;;;;;10.00;99.90;;;;;;10510899;28;19928;-72
2021/05/20 02:02:42;;;;;;;;;;;10.00;99.90;;;;;;10501183;28;20321;-73
2021/05/20 02:07:44;;;;;;;;;;;10.00;99.90;;;;;;10533381;28;19967;-73
2021/05/20 02:12:46;;;;;;;;;;;10.00;99.90;;;;;;10499454;28;19930;-73
2021/05/20 02:17:48;;;;;;;;;;;10.00;99.90;;;;;;10531393;28;19979;-72
2021/05/20 02:22:50;;;;;;;;;;;10.00;99.90;;;;;;10506580;28;19967;-73
2021/05/20 02:27:51;;;;;;;;;;;9.90;99.90;;;;;;10500497;28;19979;-72
2021/05/20 02:32:53;;;;;;;;;;;9.80;99.90;;;;;;10512440;28;19925;-72
2021/05/20 02:37:56;;;;;;;;;;;9.80;99.90;;;;;;10495125;28;20396;-71
2021/05/20 02:42:59;;;;;;;;;;;9.80;99.90;;;;;;10507383;28;20380;-72
2021/05/20 02:48:00;;;;;;;;;;;9.80;99.90;;;;;;10510863;28;20320;-73
2021/05/20 02:53:02;;;;;;;;;;;9.70;99.90;;;;;;10515318;28;19924;-72
2021/05/20 02:58:04;;;;;;;;;;;9.60;99.90;;;;;;10495417;28;20040;-73
2021/05/20 03:03:06;;;;;;;;;;;9.50;99.90;;;;;;10519535;28;20296;-71
2021/05/20 03:08:08;;;;;;;;;;;9.30;99.90;;;;;;10524700;28;20031;-73
2021/05/20 03:13:12;;;;;;;;;;;9.30;99.90;;;;;;10516267;28;19959;-73
2021/05/20 03:18:13;;;;;;;;;;;9.40;99.90;;;;;;10535928;28;19924;-72
2021/05/20 03:23:16;;;;;;;;;;;9.40;99.90;;;;;;10525138;28;20376;-71
2021/05/20 03:28:18;;;;;;;;;;;9.40;99.90;;;;;;10522005;28;20016;-71
2021/05/20 03:33:20;;;;;;;;;;;9.40;99.90;;;;;;10504998;28;19928;-71
2021/05/20 03:38:25;;;;;;;;;;;9.40;99.90;;;;;;10495175;28;19970;-72
2021/05/20 03:43:31;;;;;;;;;;;9.40;99.90;;;;;;10514368;28;20022;-72
2021/05/20 03:48:52;;;;;;;;;;;9.30;99.90;;;;;;10505323;28;19959;-71
2021/05/20 03:53:54;;;;;;;;;;;9.20;99.90;;;;;;10515439;28;19979;-72
2021/05/20 03:58:56;;;;;;;;;;;9.30;99.90;;;;;;10515568;28;20011;-71
2021/05/20 04:03:58;;;;;;;;;;;9.50;99.90;;;;;;10502065;28;20031;-72
2021/05/20 04:09:00;;;;;;;;;;;9.50;99.90;;;;;;10513801;28;20026;-72
2021/05/20 04:14:01;;;;;;;;;;;9.60;99.90;;;;;;10501099;28;20007;-71
2021/05/20 04:19:04;;;;;;;;;;;9.70;99.90;;;;;;10499890;28;20368;-71
2021/05/20 04:24:06;;;;;;;;;;;9.80;99.90;;;;;;10505883;28;19967;-71
2021/05/20 04:29:09;;;;;;;;;;;9.90;99.90;;;;;;10500789;28;20022;-72
2021/05/20 04:34:11;;;;;;;;;;;10.30;99.90;;;;;;10497746;28;20016;-72
2021/05/20 04:39:12;;;;;;;;;;;11.70;99.90;;;;;;10515555;28;19924;-72
2021/05/20 04:44:14;;;;;;;;;;;11.50;99.90;;;;;;10519653;28;20419;-72
2021/05/20 04:49:16;;;;;;;;;;;11.50;99.90;;;;;;10519183;28;20033;-72
2021/05/20 04:54:18;;;;;;;;;;;11.00;99.90;;;;;;10524131;28;19940;-72
2021/05/20 04:59:19;;;;;;;;;;;10.70;99.90;;;;;;10519098;28;20364;-71
2021/05/20 05:04:21;;;;;;;;;;;10.50;99.90;;;;;;10497983;28;20010;-72
2021/05/20 05:09:23;;;;;;;;;;;10.50;99.90;;;;;;10491823;28;19946;-72
2021/05/20 05:14:25;;;;;;;;;;;10.60;99.90;;;;;;10496070;28;20387;-72
2021/05/20 05:19:27;;;;;;;;;;;10.60;99.90;;;;;;10491330;28;19974;-72
2021/05/20 05:24:29;;;;;;;;;;;10.80;99.90;;;;;;10502712;28;19924;-72
2021/05/20 05:29:32;;;;;;;;;;;11.10;99.90;;;;;;10515873;28;19931;-71
2021/05/20 05:34:34;;;;;;;;;;;11.60;99.90;;;;;;10491144;28;19925;-71
2021/05/20 05:39:36;;;;;;;;;;;11.70;99.90;;;;;;10525921;28;19956;-72
2021/05/20 05:44:38;;;;;;;;;;;12.00;99.90;;;;;;10518966;28;20023;-71
2021/05/20 05:49:43;;;;;;;;;;;12.40;99.90;;;;;;10513373;28;19967;-71
2021/05/20 05:54:45;;;;;;;;;;;13.00;99.90;;;;;;10511688;28;19963;-71
2021/05/20 05:59:49;;;;;;;;;;;12.90;99.90;;;;;;10516873;28;20006;-72
2021/05/20 06:04:51;;;;;;;;;;;13.10;99.90;;;;;;10526372;28;19924;-72
2021/05/20 06:09:52;;;;;;;;;;;13.00;99.90;;;;;;10515405;28;19974;-72
2021/05/20 06:14:54;;;;;;;;;;;12.50;99.90;;;;;;10491044;28;20403;-72
2021/05/20 06:19:56;;;;;;;;;;;12.30;99.90;;;;;;10506606;28;20014;-72
2021/05/20 06:24:58;;;;;;;;;;;12.40;99.90;;;;;;10505302;28;19929;-72
2021/05/20 06:30:00;;;;;;;;;;;13.00;99.90;;;;;;10511897;28;20332;-72
2021/05/20 06:35:02;;;;;;;;;;;13.10;99.90;;;;;;10505451;28;19935;-71
2021/05/20 06:40:05;;;;;;;;;;;12.60;99.90;;;;;;10505396;28;20016;-71
2021/05/20 06:45:07;;;;;;;;;;;12.20;99.90;;;;;;10504244;28;20024;-72
2021/05/20 06:50:09;;;;;;;;;;;12.20;99.90;;;;;;10494938;28;19982;-72
2021/05/20 06:55:11;;;;;;;;;;;12.30;99.90;;;;;;10515103;28;20034;-72
2021/05/20 07:00:14;;;;;;;;;;;12.30;99.90;;;;;;10521828;28;20322;-71
2021/05/20 07:05:16;;;;;;;;;;;12.70;99.90;;;;;;10504101;28;19928;-72
2021/05/20 07:10:18;;;;;;;;;;;13.00;99.90;;;;;;10529578;28;20435;-71
2021/05/20 07:15:19;;;;;;;;;;;13.90;99.90;;;;;;10512753;28;20031;-71
2021/05/20 07:20:21;;;;;;;;;;;13.80;99.90;;;;;;10499804;28;20546;-71
2021/05/20 07:25:23;;;;;;;;;;;13.80;99.90;;;;;;10497807;28;19978;-72
2021/05/20 07:30:25;;;;;;;;;;;14.40;99.90;;;;;;10516108;28;19938;-71
2021/05/20 07:35:27;;;;;;;;;;;15.30;99.90;;;;;;10490715;28;19925;-71
2021/05/20 07:40:28;;;;;;;;;;;16.80;99.90;;;;;;10510845;28;19924;-72
2021/05/20 07:45:30;;;;;;;;;;;17.70;99.90;;;;;;10516127;28;20650;-71
2021/05/20 07:50:32;;;;;;;;;;;18.10;97.60;;;;;;10492741;28;20022;-72
2021/05/20 07:55:34;;;;;;;;;;;17.60;92.30;;;;;;10490755;28;20029;-71
2021/05/20 08:00:36;;;;;;;;;;;16.30;96.10;;;;;;10507885;28;20023;-71
2021/05/20 08:05:50;;;;;;;;;;;15.70;97.90;;;;;;10531405;28;19963;-72
2021/05/20 08:10:55;;;;;;;;;;;15.40;99.90;;;;;;10513550;28;19933;-72
2021/05/20 08:15:58;;;;;;;;;;;16.00;99.90;;;;;;10489607;28;20036;-72
2021/05/20 08:21:00;;;;;;;;;;;16.30;99.70;;;;;;10523505;28;20376;-71
2021/05/20 08:26:03;;;;;;;;;;;16.70;94.60;;;;;;10521077;28;20395;-71
2021/05/20 08:31:05;;;;;;;;;;;15.50;96.20;;;;;;10494148;28;19924;-65
2021/05/20 08:36:07;;;;;;;;;;;15.30;96.30;;;;;;10510968;28;20019;-65
2021/05/20 08:41:09;;;;;;;;;;;16.60;94.90;;;;;;10497810;28;20430;-65
2021/05/20 08:46:11;;;;;;;;;;;16.90;92.90;;;;;;10487976;28;20027;-65
2021/05/20 08:51:13;;;;;;;;;;;16.20;94.10;;;;;;10506495;28;20472;-65
2021/05/20 08:56:16;;;;;;;;;;;15.20;98.10;;;;;;10521462;28;20046;-65
2021/05/20 09:01:33;;;;;;;;;;;14.90;99.90;;;;;;10471265;28;20014;-65
2021/05/20 09:06:45;;;;;;;;;;;15.70;99.90;;;;;;10466498;28;20372;-66
2021/05/20 09:11:48;;;;;;;;;;;15.80;99.90;;;;;;10477601;28;20026;-65
2021/05/20 09:16:50;;;;;;;;;;;16.20;96.30;;;;;;10523717;28;20359;-65
2021/05/20 09:22:05;;;;;;;;;;;16.40;96.50;;;;;;10493496;28;20482;-65
2021/05/20 09:27:22;;;;;;;;;;;16.40;96.10;;;;;;10510848;28;20022;-65
2021/05/20 09:32:32;;;;;;;;;;;16.80;94.00;;;;;;10471101;28;19932;-65
2021/05/20 09:37:43;;;;;;;;;;;17.70;92.20;;;;;;10496631;28;19959;-65
2021/05/20 09:42:46;;;;;;;;;;;18.20;85.20;;;;;;10519050;28;20035;-65
2021/05/20 09:47:49;;;;;;;;;;;17.80;86.60;;;;;;10522653;28;19924;-66
2021/05/20 09:52:50;;;;;;;;;;;17.70;80.10;;;;;;10517321;28;20259;-65
2021/05/20 09:57:53;;;;;;;;;;;18.40;74.50;;;;;;10514854;28;19970;-65
2021/05/20 10:02:59;;;;;;;;;;;18.50;75.30;;;;;;10492842;28;20068;-65
2021/05/20 10:08:04;;;;;;;;;;;19.40;67.70;;;;;;10502761;28;20393;-66
2021/05/20 10:13:07;;;;;;;;;;;19.60;67.80;;;;;;10511732;28;19928;-66
2021/05/20 10:18:19;;;;;;;;;;;19.30;65.40;;;;;;10500076;28;20015;-66
2021/05/20 10:23:22;;;;;;;;;;;18.60;63.90;;;;;;10514602;28;19978;-66
2021/05/20 10:28:27;;;;;;;;;;;18.50;66.90;;;;;;10497657;28;19990;-65
2021/05/20 10:33:29;;;;;;;;;;;18.90;67.30;;;;;;10476153;28;19925;-65
2021/05/20 10:38:32;;;;;;;;;;;18.10;67.50;;;;;;10499127;28;20006;-65
2021/05/20 10:43:33;;;;;;;;;;;18.20;67.80;;;;;;10525620;28;20011;-66
2021/05/20 10:48:36;;;;;;;;;;;18.00;69.20;;;;;;10511843;28;20368;-66
2021/05/20 10:53:41;;;;;;;;;;;17.70;69.80;;;;;;10514793;28;19986;-66
2021/05/20 10:58:44;;;;;;;;;;;17.60;72.20;;;;;;10483613;28;20336;-65
2021/05/20 11:03:46;;;;;;;;;;;17.80;77.20;;;;;;10477139;28;20037;-65
2021/05/20 11:08:48;;;;;;;;;;;17.80;77.40;;;;;;10483543;28;20022;-65
2021/05/20 11:13:49;;;;;;;;;;;17.90;77.00;;;;;;10512630;28;20023;-65
2021/05/20 11:18:52;;;;;;;;;;;18.10;74.60;;;;;;10499328;28;19932;-65
2021/05/20 11:24:13;;;;;;;;;;;18.10;72.50;;;;;;10485690;28;20014;-65
2021/05/20 11:29:15;;;;;;;;;;;18.00;74.50;;;;;;10485917;28;19971;-65
2021/05/20 11:39:20;;;;;;;;;;;18.00;72.70;;;;;;10492819;28;19976;-65
2021/05/20 11:44:23;;;;;;;;;;;18.00;70.80;;;;;;10471365;28;19936;-65
2021/05/20 11:49:25;;;;;;;;;;;18.20;70.20;;;;;;10483335;28;19967;-65
2021/05/20 11:54:28;;;;;;;;;;;18.30;68.10;;;;;;10524225;28;20380;-65
2021/05/20 11:59:33;;;;;;;;;;;18.30;67.10;;;;;;10530692;28;20007;-65
2021/05/20 12:04:36;;;;;;;;;;;18.40;66.50;;;;;;10499889;28;20023;-65
2021/05/20 12:09:37;;;;;;;;;;;18.20;63.40;;;;;;10451378;28;20008;-65
2021/05/20 12:14:39;;;;;;;;;;;18.00;65.30;;;;;;10509903;28;20443;-65
2021/05/20 12:19:42;;;;;;;;;;;18.10;64.50;;;;;;10507256;28;19972;-65
2021/05/20 12:24:48;;;;;;;;;;;18.70;63.40;;;;;;10504167;28;19928;-65
2021/05/20 12:29:54;;;;;;;;;;;19.00;59.30;;;;;;10511156;28;20411;-65
2021/05/20 12:35:13;;;;;;;;;;;19.40;57.60;;;;;;10510459;28;19967;-65
2021/05/20 12:40:15;;;;;;;;;;;19.90;53.80;;;;;;10526131;28;20019;-65
2021/05/20 12:45:26;;;;;;;;;;;20.40;53.70;;;;;;10505425;28;20412;-65
2021/05/20 12:50:29;;;;;;;;;;;20.10;54.10;;;;;;10511999;28;20097;-65
2021/05/20 12:55:30;;;;;;;;;;;19.50;53.70;;;;;;10512731;28;19994;-65
2021/05/20 13:00:54;;;;;;;;;;;18.90;55.60;;;;;;10529350;28;20399;-65
2021/05/20 13:05:59;;;;;;;;;;;19.00;55.20;;;;;;10458274;28;20814;-65
2021/05/20 13:11:11;;;;;;;;;;;19.60;53.30;;;;;;10527408;28;19925;-65
2021/05/20 13:16:27;;;;;;;;;;;19.20;52.90;;;;;;10498305;28;20023;-65
2021/05/20 13:26:54;;;;;;;;;;;18.90;53.40;;;;;;10496044;28;20428;-65
2021/05/20 13:31:56;;;;;;;;;;;18.80;52.50;;;;;;10553187;27;20353;-65
2021/05/20 13:36:57;;;;;;;;;;;18.70;52.40;;;;;;10485496;28;20004;-65
2021/05/20 13:41:59;;;;;;;;;;;18.90;52.80;;;;;;10465333;28;19928;-65
2021/05/20 13:47:01;;;;;;;;;;;19.20;52.00;;;;;;10495058;28;19955;-65
2021/05/20 13:52:03;;;;;;;;;;;19.10;52.20;;;;;;10511746;28;19928;-65
2021/05/20 13:57:05;;;;;;;;;;;19.30;51.90;;;;;;10526775;28;20015;-65
2021/05/20 14:02:09;;;;;;;;;;;19.00;50.90;;;;;;10503605;28;20381;-65
2021/05/20 14:07:12;;;;;;;;;;;19.20;51.50;;;;;;10499470;28;20331;-65
2021/05/20 14:12:17;;;;;;;;;;;19.40;51.60;;;;;;10525378;28;20011;-65
2021/05/20 14:17:22;;;;;;;;;;;19.40;52.00;;;;;;10487492;28;20011;-65
2021/05/20 14:22:25;;;;;;;;;;;19.40;50.90;;;;;;10498680;28;19955;-65
2021/05/20 14:27:27;;;;;;;;;;;19.40;50.90;;;;;;10488913;28;20399;-65
2021/05/20 14:32:29;;;;;;;;;;;19.30;49.80;;;;;;10471213;28;19925;-65
2021/05/20 14:37:32;;;;;;;;;;;19.60;50.30;;;;;;10466582;28;19932;-65
2021/05/20 14:42:34;;;;;;;;;;;19.80;49.50;;;;;;10499515;28;19967;-65
2021/05/20 14:47:44;;;;;;;;;;;19.80;49.20;;;;;;10503510;28;19970;-65
2021/05/20 14:52:46;;;;;;;;;;;19.60;48.40;;;;;;10514778;28;19967;-65
2021/05/20 15:08:29;;;;;;;;;;;19.20;49.60;;;;;;10472244;28;19924;-65
2021/05/20 15:13:38;;;;;;;;;;;19.10;48.80;;;;;;10496206;28;19924;-65
2021/05/20 15:18:40;;;;;;;;;;;19.30;48.80;;;;;;10529054;28;20010;-65
2021/05/20 15:23:42;;;;;;;;;;;19.40;49.30;;;;;;10496131;28;20424;-65
2021/05/20 15:28:44;;;;;;;;;;;19.50;47.70;;;;;;10496746;28;19960;-65
2021/05/20 15:33:47;;;;;;;;;;;19.40;47.60;;;;;;10482950;28;20007;-65
2021/05/20 15:38:48;;;;;;;;;;;19.50;48.50;;;;;;10480409;28;19977;-65
2021/05/20 15:43:50;;;;;;;;;;;19.40;48.90;;;;;;10465232;28;20012;-65
2021/05/20 15:54:13;;;;;;;;;;;19.30;49.20;;;;;;10518394;28;20020;-65
2021/05/20 15:59:15;;;;;;;;;;;18.90;49.00;;;;;;10499637;28;20027;-65
2021/05/20 16:04:17;;;;;;;;;;;18.60;50.10;;;;;;10530400;28;19928;-65
2021/05/20 16:09:29;;;;;;;;;;;18.40;50.70;;;;;;10554213;27;20464;-65
2021/05/20 16:14:36;;;;;;;;;;;18.40;50.50;;;;;;10489211;28;20019;-65
2021/05/20 16:19:38;;;;;;;;;;;18.30;51.00;;;;;;10494917;28;20015;-65
2021/05/20 16:35:46;;;;;;;;;;;17.80;51.70;;;;;;10489352;28;20015;-65
2021/05/20 16:40:50;;;;;;;;;;;17.50;52.80;;;;;;10473048;28;20051;-65
2021/05/20 16:45:52;;;;;;;;;;;17.50;54.00;;;;;;10500956;28;19972;-65
2021/05/20 16:50:54;;;;;;;;;;;17.40;54.40;;;;;;10495015;28;20323;-65
2021/05/20 16:56:02;;;;;;;;;;;17.30;54.90;;;;;;10518060;28;19975;-65
2021/05/20 17:01:04;;;;;;;;;;;17.20;54.20;;;;;;10493666;28;19963;-65
2021/05/20 17:06:06;;;;;;;;;;;17.10;54.50;;;;;;10474975;28;19960;-65
2021/05/20 17:11:09;;;;;;;;;;;16.80;54.60;;;;;;10488054;28;19932;-65
2021/05/20 17:16:11;;;;;;;;;;;16.80;55.70;;;;;;10489082;28;20316;-65
2021/05/20 17:21:13;;;;;;;;;;;16.70;54.40;;;;;;10504239;28;19924;-65
2021/05/20 17:26:15;;;;;;;;;;;16.80;55.30;;;;;;10516372;28;20310;-65
2021/05/20 17:31:22;;;;;;;;;;;16.70;54.70;;;;;;10478742;28;19929;-65
2021/05/20 17:36:26;;;;;;;;;;;16.50;54.70;;;;;;10486623;28;20356;-66
2021/05/20 17:41:27;;;;;;;;;;;16.50;55.20;;;;;;10484281;28;19971;-65
2021/05/20 17:46:29;;;;;;;;;;;16.50;55.10;;;;;;10481807;28;20014;-65
2021/05/20 17:51:31;;;;;;;;;;;16.40;55.10;;;;;;10483314;28;20011;-65
2021/05/20 17:56:33;;;;;;;;;;;16.30;54.60;;;;;;10455869;28;20019;-65
2021/05/20 18:01:35;;;;;;;;;;;16.20;55.60;;;;;;10480332;28;19978;-65
2021/05/20 18:06:39;;;;;;;;;;;16.10;56.60;;;;;;10483282;28;19959;-65
2021/05/20 18:12:17;;;;;;;;;;;16.10;56.20;;;;;;10483907;28;20470;-65
2021/05/20 18:22:30;;;;;;;;;;;15.90;57.50;;;;;;10515246;28;20450;-65
2021/05/20 18:27:32;;;;;;;;;;;15.90;57.70;;;;;;10490150;28;19967;-65
2021/05/20 18:32:34;;;;;;;;;;;15.60;58.70;;;;;;10510791;28;19927;-65
2021/05/20 18:37:36;;;;;;;;;;;15.50;59.00;;;;;;10461572;28;19970;-66
2021/05/20 18:42:45;;;;;;;;;;;15.40;58.90;;;;;;10486359;28;20043;-65
2021/05/20 18:47:47;;;;;;;;;;;15.30;59.40;;;;;;10477873;28;19976;-65
2021/05/20 18:52:50;;;;;;;;;;;15.20;59.00;;;;;;10489707;28;19925;-65
2021/05/20 18:57:52;;;;;;;;;;;15.00;58.90;;;;;;10517571;28;19928;-65
2021/05/20 19:02:55;;;;;;;;;;;14.90;59.20;;;;;;10492799;28;20316;-65
2021/05/20 19:08:01;;;;;;;;;;;14.90;60.00;;;;;;10512848;28;19963;-65
2021/05/20 19:13:04;;;;;;;;;;;14.90;61.50;;;;;;10487336;28;20308;-65
2021/05/20 19:18:09;;;;;;;;;;;14.70;60.70;;;;;;10521878;28;19982;-65
2021/05/20 19:23:11;;;;;;;;;;;14.70;61.10;;;;;;10514487;28;20365;-65
2021/05/20 19:28:13;;;;;;;;;;;14.70;61.80;;;;;;10495973;28;19927;-65
2021/05/20 19:33:15;;;;;;;;;;;14.60;62.00;;;;;;10525152;28;19928;-65
2021/05/20 19:38:17;;;;;;;;;;;14.50;61.40;;;;;;10510719;28;20571;-72
2021/05/20 19:43:18;;;;;;;;;;;14.50;62.10;;;;;;10480942;28;20000;-72
2021/05/20 19:48:20;;;;;;;;;;;14.50;62.30;;;;;;10477361;28;19994;-73
2021/05/20 20:03:56;;;;;;;;;;;14.20;62.70;;;;;;10493106;28;19968;-73
2021/05/20 20:08:58;;;;;;;;;;;14.10;63.30;;;;;;10503238;28;19982;-73
2021/05/20 20:14:00;;;;;;;;;;;14.00;64.10;;;;;;10469900;28;19930;-73
2021/05/20 20:19:09;;;;;;;;;;;14.10;63.80;;;;;;10492156;28;20159;-72
2021/05/20 20:29:24;;;;;;;;;;;14.00;64.90;;;;;;10512285;28;19975;-72
2021/05/20 20:34:37;;;;;;;;;;;13.90;64.60;;;;;;10512947;28;19986;-72
2021/05/20 20:45:01;;;;;;;;;;;13.90;65.10;;;;;;10507966;28;19931;-72
2021/05/20 20:50:07;;;;;;;;;;;13.90;66.50;;;;;;10527876;28;19986;-72
2021/05/20 20:55:09;;;;;;;;;;;13.90;65.90;;;;;;10493858;28;20003;-72
2021/05/20 21:00:11;;;;;;;;;;;13.90;67.70;;;;;;10526796;28;19928;-72
2021/05/20 21:05:13;;;;;;;;;;;13.90;68.00;;;;;;10495019;28;20333;-72
2021/05/20 21:10:14;;;;;;;;;;;13.90;69.20;;;;;;10489968;28;20023;-72
2021/05/20 21:15:16;;;;;;;;;;;13.90;69.10;;;;;;10511839;28;20444;-72
2021/05/20 21:20:21;;;;;;;;;;;13.90;69.80;;;;;;10496357;28;19982;-72
2021/05/20 21:25:23;;;;;;;;;;;13.80;70.50;;;;;;10522704;28;20292;-72
2021/05/20 21:30:25;;;;;;;;;;;13.80;71.30;;;;;;10524967;28;20022;-72
2021/05/20 21:35:26;;;;;;;;;;;13.90;71.30;;;;;;10494155;28;20000;-72
2021/05/20 21:40:28;;;;;;;;;;;13.90;71.00;;;;;;10513869;28;20027;-72
2021/05/20 21:45:31;;;;;;;;;;;13.90;71.20;;;;;;10493101;28;20201;-72
2021/05/20 21:50:33;;;;;;;;;;;13.80;72.00;;;;;;10498904;28;19932;-72
2021/05/20 21:55:35;;;;;;;;;;;13.90;73.90;;;;;;10520260;28;19928;-72
2021/05/20 22:00:37;;;;;;;;;;;13.80;74.10;;;;;;10497640;28;20023;-72
2021/05/20 22:05:39;;;;;;;;;;;13.70;75.40;;;;;;10527401;28;19924;-72
2021/05/20 22:15:46;;;;;;;;;;;13.50;75.80;;;;;;10513532;28;19946;-72
2021/05/20 22:20:48;;;;;;;;;;;13.30;77.80;;;;;;10520269;28;20015;-72
2021/05/20 22:26:36;;;;;;;;;;;13.20;79.10;;;;;;10503965;28;19969;-72
2021/05/20 22:31:28;;;;;;;;;;;13.10;80.60;;;;;;10492120;28;19934;-72
2021/05/20 22:36:30;;;;;;;;;;;13.00;81.20;;;;;;10488587;28;20011;-72
2021/05/20 22:41:32;;;;;;;;;;;13.10;83.10;;;;;;10516548;28;19975;-72
2021/05/20 22:46:34;;;;;;;;;;;13.20;81.60;;;;;;10516835;28;20426;-72
2021/05/20 22:51:35;;;;;;;;;;;13.30;84.10;;;;;;10486997;28;20022;-72
2021/05/20 22:56:37;;;;;;;;;;;13.20;84.50;;;;;;10490248;28;19971;-72
2021/05/20 23:01:39;;;;;;;;;;;13.10;85.00;;;;;;10503704;28;19932;-72
2021/05/20 23:06:41;;;;;;;;;;;13.10;85.90;;;;;;10488711;28;20015;-72
2021/05/20 23:11:43;;;;;;;;;;;13.10;86.10;;;;;;10467847;28;19929;-73
2021/05/20 23:16:45;;;;;;;;;;;13.10;85.60;;;;;;10488418;28;19929;-72
2021/05/20 23:21:47;;;;;;;;;;;13.10;87.00;;;;;;10493863;28;20783;-72
2021/05/20 23:26:48;;;;;;;;;;;13.10;88.70;;;;;;10490086;28;20399;-72
2021/05/20 23:31:50;;;;;;;;;;;13.10;90.30;;;;;;10493074;28;20025;-72
2021/05/20 23:36:52;;;;;;;;;;;13.10;90.80;;;;;;10512852;28;19964;-72
2021/05/20 23:41:56;;;;;;;;;;;13.00;88.80;;;;;;10513501;28;20456;-72
2021/05/20 23:46:59;;;;;;;;;;;13.00;90.00;;;;;;10517068;28;20082;-72
2021/05/20 23:52:01;;;;;;;;;;;12.90;91.60;;;;;;10510386;28;19924;-72
2021/05/20 23:57:02;;;;;;;;;;;12.80;93.60;;;;;;10500899;28;20023;-72
